createdAt,value
2023-02-14T00:01:23.157Z,10.65
2023-02-14T00:03:50.471Z,10.98
2023-02-14T00:06:18.214Z,11.45
2023-02-14T00:08:45.648Z,10.82
2023-02-14T00:11:14.322Z,10.43
2023-02-14T00:14:02.128Z,10.77
2023-02-14T00:16:30.067Z,10.07
2023-02-14T00:19:03.988Z,10.95
2023-02-14T00:21:33.246Z,10.00
2023-02-14T00:24:00.561Z,13.18
2023-02-14T00:26:28.122Z,10.60
2023-02-14T00:28:55.307Z,8.60
2023-02-14T00:31:24.658Z,9.90
2023-02-14T00:33:52.123Z,9.93
2023-02-14T00:36:20.922Z,9.27
2023-02-14T00:38:50.359Z,9.13
2023-02-14T00:41:21.163Z,10.30
2023-02-14T00:43:49.991Z,9.32
2023-02-14T00:46:19.244Z,10.00
2023-02-14T00:48:46.901Z,10.20
2023-02-14T00:51:15.402Z,8.82
2023-02-14T00:53:44.432Z,10.90
2023-02-14T00:56:13.096Z,10.27
2023-02-14T00:58:40.853Z,10.45
2023-02-14T01:01:09.455Z,10.95
2023-02-14T01:03:37.072Z,10.70
2023-02-14T01:06:05.690Z,10.80
2023-02-14T01:08:33.548Z,12.23
2023-02-14T01:11:16.755Z,13.23
2023-02-14T01:13:45.035Z,10.82
2023-02-14T01:16:17.080Z,9.38
2023-02-14T01:18:45.212Z,11.23
2023-02-14T01:21:15.805Z,9.80
2023-02-14T01:23:44.082Z,9.10
2023-02-14T01:26:12.827Z,10.50
2023-02-14T01:28:40.859Z,9.55
2023-02-14T01:31:13.175Z,10.75
2023-02-14T01:33:42.442Z,11.20
2023-02-14T01:36:21.897Z,13.90
2023-02-14T01:38:53.029Z,12.93
2023-02-14T01:41:21.842Z,12.00
2023-02-14T01:44:15.218Z,12.77
2023-02-14T01:46:44.828Z,10.88
2023-02-14T01:49:15.444Z,10.48
2023-02-14T01:51:51.133Z,11.50
2023-02-14T01:54:23.205Z,10.57
2023-02-14T01:56:56.373Z,9.82
2023-02-14T01:59:27.080Z,12.30
2023-02-14T02:01:55.476Z,11.20
2023-02-14T02:04:28.378Z,12.95
2023-02-14T02:07:02.341Z,12.35
2023-02-14T02:09:53.732Z,12.60
2023-02-14T02:12:24.364Z,12.05
2023-02-14T02:14:55.182Z,11.07
2023-02-14T02:17:51.487Z,11.98
2023-02-14T02:20:37.509Z,11.02
2023-02-14T02:23:38.837Z,10.70
2023-02-14T02:26:33.868Z,10.73
2023-02-14T02:29:28.746Z,10.73
2023-02-14T02:32:07.449Z,10.25
2023-02-14T02:35:05.675Z,9.40
2023-02-14T02:38:09.925Z,10.23
2023-02-14T02:40:40.088Z,9.95
2023-02-14T02:43:43.249Z,10.75
2023-02-14T02:46:49.202Z,11.02
2023-02-14T02:49:39.500Z,10.55
2023-02-14T02:52:45.953Z,12.18
2023-02-14T02:55:25.696Z,9.57
2023-02-14T02:57:55.218Z,9.65
2023-02-14T03:00:24.563Z,10.85
2023-02-14T03:03:15.387Z,10.68
2023-02-14T03:05:43.684Z,11.40
2023-02-14T03:08:11.361Z,10.52
2023-02-14T03:10:39.705Z,11.82
2023-02-14T03:13:16.088Z,11.15
2023-02-14T03:16:15.625Z,10.75
2023-02-14T03:19:03.259Z,11.10
2023-02-14T03:21:55.272Z,11.68
2023-02-14T03:24:36.632Z,11.45
2023-02-14T03:27:15.303Z,11.30
2023-02-14T03:30:00.348Z,11.35
2023-02-14T03:32:39.557Z,11.95
2023-02-14T03:35:22.759Z,12.60
2023-02-14T03:37:57.921Z,13.23
2023-02-14T03:40:28.003Z,12.05
2023-02-14T03:43:06.021Z,11.40
2023-02-14T03:45:39.515Z,12.80
2023-02-14T03:48:11.556Z,12.82
2023-02-14T03:50:42.383Z,12.27
2023-02-14T03:53:12.731Z,13.35
2023-02-14T03:56:08.590Z,15.15
2023-02-14T03:58:41.481Z,14.65
2023-02-14T04:01:18.379Z,17.27
2023-02-14T04:03:46.301Z,13.48
2023-02-14T04:06:14.219Z,14.60
2023-02-14T04:08:41.460Z,15.07
2023-02-14T04:11:09.134Z,13.68
2023-02-14T04:13:37.618Z,16.75
2023-02-14T04:16:05.751Z,15.48
2023-02-14T04:18:52.559Z,15.05
2023-02-14T04:21:20.055Z,15.40
2023-02-14T04:23:47.323Z,17.48
2023-02-14T04:26:14.925Z,17.85
2023-02-14T04:28:42.281Z,18.23
2023-02-14T04:31:11.474Z,20.63
2023-02-14T04:33:39.487Z,18.27
2023-02-14T04:36:07.156Z,16.27
2023-02-14T04:38:34.730Z,17.42
2023-02-14T04:41:02.464Z,18.05
2023-02-14T04:43:30.051Z,17.00
2023-02-14T04:45:57.487Z,19.58
2023-02-14T04:48:24.756Z,19.33
2023-02-14T04:50:54.405Z,22.15
2023-02-14T04:53:22.180Z,18.48
2023-02-14T04:55:50.414Z,20.90
2023-02-14T04:58:18.317Z,21.38
2023-02-14T05:00:46.075Z,20.63
2023-02-14T05:03:13.349Z,22.50
2023-02-14T05:05:40.836Z,20.95
2023-02-14T05:08:08.027Z,21.25
2023-02-14T05:10:35.605Z,19.42
2023-02-14T05:13:02.806Z,19.38
2023-02-14T05:15:30.436Z,18.48
2023-02-14T05:18:01.702Z,23.08
2023-02-14T05:20:29.912Z,19.30
2023-02-14T05:23:03.371Z,19.15
2023-02-14T05:25:31.762Z,20.90
2023-02-14T05:27:59.088Z,20.27
2023-02-14T05:30:28.196Z,19.67
2023-02-14T05:32:56.007Z,22.30
2023-02-14T05:35:24.159Z,22.50
2023-02-14T05:37:51.369Z,20.83
2023-02-14T05:40:19.005Z,21.85
2023-02-14T05:42:46.365Z,19.25
2023-02-14T05:45:15.187Z,21.25
2023-02-14T05:47:42.435Z,20.13
2023-02-14T05:50:10.686Z,19.50
2023-02-14T05:52:38.081Z,20.80
2023-02-14T05:55:06.650Z,20.38
2023-02-14T05:57:34.052Z,21.48
2023-02-14T06:00:01.679Z,21.55
2023-02-14T06:02:29.546Z,22.05
2023-02-14T06:04:57.298Z,23.15
2023-02-14T06:07:24.713Z,24.00
2023-02-14T06:09:52.316Z,24.02
2023-02-14T06:12:19.612Z,24.25
2023-02-14T06:14:47.118Z,24.17
2023-02-14T06:17:14.518Z,25.35
2023-02-14T06:19:43.290Z,25.85
2023-02-14T06:22:10.488Z,25.13
2023-02-14T06:24:38.026Z,24.98
2023-02-14T06:27:05.333Z,28.17
2023-02-14T06:29:32.828Z,26.92
2023-02-14T06:32:05.803Z,29.48
2023-02-14T06:34:34.361Z,32.92
2023-02-14T06:37:01.645Z,29.05
2023-02-14T06:39:29.318Z,29.50
2023-02-14T06:41:56.668Z,26.58
2023-02-14T06:44:24.133Z,29.88
2023-02-14T06:46:51.888Z,36.97
2023-02-14T06:49:19.344Z,27.05
2023-02-14T06:51:47.592Z,27.60
2023-02-14T06:54:15.014Z,23.15
2023-02-14T06:56:42.371Z,25.10
2023-02-14T06:59:09.879Z,27.40
2023-02-14T07:01:37.883Z,23.88
2023-02-14T07:04:05.861Z,23.77
2023-02-14T07:06:33.161Z,24.17
2023-02-14T07:09:00.861Z,25.05
2023-02-14T07:11:28.721Z,31.55
2023-02-14T07:13:56.321Z,30.25
2023-02-14T07:16:23.737Z,21.02
2023-02-14T07:18:51.285Z,22.45
2023-02-14T07:21:18.553Z,22.60
2023-02-14T07:23:47.819Z,25.60
2023-02-14T07:26:18.200Z,28.48
2023-02-14T07:28:48.816Z,22.88
2023-02-14T07:31:18.438Z,23.40
2023-02-14T07:33:46.299Z,24.67
2023-02-14T07:36:13.641Z,26.52
2023-02-14T07:38:41.478Z,26.27
2023-02-14T07:41:08.755Z,26.77
2023-02-14T07:43:36.296Z,27.92
2023-02-14T07:46:03.768Z,27.02
2023-02-14T07:48:33.894Z,27.75
2023-02-14T07:51:04.779Z,28.75
2023-02-14T07:53:32.334Z,26.77
2023-02-14T07:55:59.793Z,28.20
2023-02-14T07:58:27.963Z,25.27
2023-02-14T08:00:55.519Z,25.65
2023-02-14T08:03:23.049Z,22.00
2023-02-14T08:05:57.350Z,23.73
2023-02-14T08:08:27.499Z,25.80
2023-02-14T08:10:54.956Z,28.05
2023-02-14T08:13:22.857Z,22.35
2023-02-14T08:16:07.111Z,24.17
2023-02-14T08:18:42.314Z,24.90
2023-02-14T08:21:11.234Z,24.58
2023-02-14T08:23:38.796Z,23.15
2023-02-14T08:26:07.040Z,24.80
2023-02-14T08:28:35.224Z,21.55
2023-02-14T08:31:04.368Z,22.25
2023-02-14T08:33:33.787Z,21.63
2023-02-14T08:36:01.123Z,22.65
2023-02-14T08:38:29.061Z,25.20
2023-02-14T08:41:03.069Z,24.50
2023-02-14T08:43:34.175Z,24.27
2023-02-14T08:46:02.040Z,25.15
2023-02-14T08:48:30.020Z,24.45
2023-02-14T08:50:57.514Z,24.67
2023-02-14T08:53:25.240Z,27.17
2023-02-14T08:55:52.582Z,24.75
2023-02-14T08:58:20.101Z,27.60
2023-02-14T09:00:47.570Z,24.25
2023-02-14T09:03:15.063Z,24.83
2023-02-14T09:05:43.067Z,28.95
2023-02-14T09:08:10.520Z,28.00
2023-02-14T09:10:37.858Z,26.45
2023-02-14T09:13:05.841Z,26.33
2023-02-14T09:15:33.226Z,25.73
2023-02-14T09:18:00.907Z,23.90
2023-02-14T09:20:28.152Z,24.13
2023-02-14T09:22:57.147Z,22.88
2023-02-14T09:25:24.440Z,26.30
2023-02-14T09:27:52.036Z,29.02
2023-02-14T09:30:19.523Z,25.33
2023-02-14T09:32:47.005Z,24.73
2023-02-14T09:35:14.234Z,29.17
2023-02-14T09:38:00.494Z,26.40
2023-02-14T09:40:27.818Z,31.60
2023-02-14T09:43:10.209Z,34.33
2023-02-14T09:45:38.391Z,25.63
2023-02-14T09:48:19.842Z,28.52
2023-02-14T09:50:54.742Z,26.90
2023-02-14T09:53:32.617Z,29.70
2023-02-14T09:56:12.333Z,22.42
2023-02-14T09:59:09.393Z,22.63
2023-02-14T10:01:42.618Z,20.63
2023-02-14T10:04:18.924Z,19.05
2023-02-14T10:07:09.927Z,22.73
2023-02-14T10:09:46.513Z,23.17
2023-02-14T10:12:31.708Z,22.10
2023-02-14T10:15:02.296Z,25.85
2023-02-14T10:17:40.836Z,26.38
2023-02-14T10:20:25.791Z,23.60
2023-02-14T10:23:23.141Z,27.05
2023-02-14T10:26:06.760Z,24.38
2023-02-14T10:28:51.949Z,19.90
2023-02-14T10:31:44.905Z,21.38
2023-02-14T10:36:44.794Z,22.15
2023-02-14T10:39:55.341Z,20.25
2023-02-14T10:42:50.946Z,21.48
2023-02-14T10:45:49.938Z,18.90
2023-02-14T10:48:32.355Z,19.23
2023-02-14T10:51:11.379Z,18.55
2023-02-14T10:53:47.756Z,20.35
2023-02-14T10:56:20.339Z,22.40
2023-02-14T10:58:50.601Z,19.10
2023-02-14T11:01:19.136Z,21.15
2023-02-14T11:03:58.669Z,20.17
2023-02-14T11:06:26.090Z,21.42
2023-02-14T11:08:55.596Z,21.77
2023-02-14T11:11:26.971Z,24.27
2023-02-14T11:13:54.596Z,21.05
2023-02-14T11:16:36.963Z,22.08
2023-02-14T11:19:20.993Z,40.22
2023-02-14T11:21:50.934Z,24.65
2023-02-14T11:24:34.930Z,22.65
2023-02-14T11:27:04.391Z,18.60
2023-02-14T11:29:45.026Z,22.67
2023-02-14T11:32:22.802Z,26.75
2023-02-14T11:35:00.501Z,26.20
2023-02-14T11:37:43.529Z,25.05
2023-02-14T11:40:27.657Z,21.95
2023-02-14T11:43:12.851Z,20.65
2023-02-14T11:45:44.410Z,20.05
2023-02-14T11:48:37.848Z,20.92
2023-02-14T11:51:15.008Z,22.30
2023-02-14T11:53:51.982Z,22.33
2023-02-14T11:56:21.435Z,22.85
2023-02-14T11:58:59.998Z,21.23
2023-02-14T12:01:36.341Z,23.02
2023-02-14T12:04:17.842Z,19.90
2023-02-14T12:06:45.948Z,20.40
2023-02-14T12:09:23.024Z,20.73
2023-02-14T12:12:00.885Z,21.08
2023-02-14T12:14:33.717Z,20.00
2023-02-14T12:17:31.251Z,20.33
2023-02-14T12:20:04.378Z,22.30
2023-02-14T12:22:37.696Z,18.58
2023-02-14T12:25:33.644Z,21.95
2023-02-14T12:28:07.544Z,22.33
2023-02-14T12:30:35.831Z,17.73
2023-02-14T12:33:05.902Z,21.40
2023-02-14T12:35:36.015Z,22.73
2023-02-14T12:38:19.186Z,20.88
2023-02-14T12:41:30.801Z,24.17
2023-02-14T12:44:04.380Z,23.00
2023-02-14T12:46:37.464Z,21.92
2023-02-14T12:49:28.756Z,24.35
2023-02-14T12:52:11.010Z,22.75
2023-02-14T12:54:56.421Z,23.83
2023-02-14T12:57:30.112Z,25.85
2023-02-14T13:00:04.036Z,23.63
2023-02-14T13:02:43.675Z,25.65
2023-02-14T13:05:22.840Z,26.55
2023-02-14T13:07:56.380Z,24.23
2023-02-14T13:10:54.728Z,25.05
2023-02-14T13:13:30.713Z,23.67
2023-02-14T13:16:08.260Z,23.35
2023-02-14T13:18:46.674Z,23.98
2023-02-14T13:21:18.382Z,28.08
2023-02-14T13:23:47.827Z,29.15
2023-02-14T13:26:24.964Z,26.55
2023-02-14T13:29:28.925Z,27.10
2023-02-14T13:32:01.825Z,25.27
2023-02-14T13:34:36.949Z,23.15
2023-02-14T13:37:10.801Z,27.85
2023-02-14T13:39:44.190Z,38.50
2023-02-14T13:42:13.575Z,43.70
2023-02-14T13:44:49.339Z,39.90
2023-02-14T13:47:23.927Z,32.20
2023-02-14T13:50:02.026Z,25.05
2023-02-14T13:52:43.444Z,22.35
2023-02-14T13:55:24.482Z,23.40
2023-02-14T13:58:07.718Z,23.50
2023-02-14T14:00:39.320Z,25.13
2023-02-14T14:03:12.658Z,26.88
2023-02-14T14:05:44.724Z,25.83
2023-02-14T14:08:21.155Z,28.42
2023-02-14T14:10:51.233Z,27.00
2023-02-14T14:13:54.722Z,30.00
2023-02-14T14:16:27.823Z,32.53
2023-02-14T14:18:56.843Z,34.08
2023-02-14T14:21:25.546Z,28.33
2023-02-14T14:24:30.465Z,30.30
2023-02-14T14:27:14.260Z,27.75
2023-02-14T14:29:57.508Z,31.08
2023-02-14T14:32:36.320Z,28.42
2023-02-14T14:35:08.498Z,26.83
2023-02-14T14:37:45.778Z,29.05
2023-02-14T14:40:30.071Z,31.10
2023-02-14T14:43:18.011Z,28.83
2023-02-14T14:45:48.146Z,31.60
2023-02-14T14:48:40.140Z,34.35
2023-02-14T14:51:15.881Z,32.45
2023-02-14T14:53:47.468Z,27.35
2023-02-14T14:56:22.569Z,29.55
2023-02-14T14:58:50.425Z,31.02
2023-02-14T15:01:37.637Z,31.05
2023-02-14T15:04:12.421Z,29.33
2023-02-14T15:06:41.066Z,28.83
2023-02-14T15:09:30.769Z,28.05
2023-02-14T15:12:21.874Z,28.63
2023-02-14T15:14:54.686Z,27.25
2023-02-14T15:17:26.929Z,28.48
2023-02-14T15:20:05.662Z,27.73
2023-02-14T15:22:52.996Z,26.77
2023-02-14T15:25:28.053Z,28.98
2023-02-14T15:27:55.696Z,27.83
2023-02-14T15:30:33.838Z,31.02
2023-02-14T15:33:06.564Z,28.65
2023-02-14T15:38:06.989Z,29.63
2023-02-14T15:40:35.755Z,28.63
2023-02-14T15:43:36.266Z,28.63
2023-02-14T15:46:29.263Z,26.88
2023-02-14T15:49:01.335Z,26.83
2023-02-14T15:51:31.250Z,31.15
2023-02-14T15:54:02.128Z,30.75
2023-02-14T15:56:49.001Z,31.23
2023-02-14T15:59:21.179Z,29.33
2023-02-14T16:01:52.837Z,31.42
2023-02-14T16:04:26.632Z,35.47
2023-02-14T16:07:22.936Z,34.97
2023-02-14T16:10:12.660Z,36.35
2023-02-14T16:12:42.248Z,35.15
2023-02-14T16:15:21.512Z,34.28
2023-02-14T16:17:49.271Z,49.45
2023-02-14T16:20:40.093Z,28.73
2023-02-14T16:23:18.156Z,29.50
2023-02-14T16:25:46.735Z,39.20
2023-02-14T16:28:14.427Z,33.70
2023-02-14T16:30:43.423Z,50.53
2023-02-14T16:33:19.978Z,35.75
2023-02-14T16:35:49.363Z,28.98
2023-02-14T16:38:19.383Z,29.92
2023-02-14T16:40:49.954Z,53.65
2023-02-14T16:43:19.599Z,39.60
2023-02-14T16:45:48.310Z,32.40
2023-02-14T16:48:16.052Z,57.55
2023-02-14T16:50:44.762Z,41.42
2023-02-14T16:53:25.396Z,52.47
2023-02-14T16:55:54.909Z,30.70
2023-02-14T16:58:27.360Z,28.67
2023-02-14T17:00:54.785Z,30.38
2023-02-14T17:03:22.223Z,30.27
2023-02-14T17:05:50.046Z,45.47
2023-02-14T17:08:17.451Z,34.25
2023-02-14T17:10:47.549Z,51.63
2023-02-14T17:13:22.321Z,56.25
2023-02-14T17:15:50.850Z,52.17
2023-02-14T17:18:21.531Z,30.77
2023-02-14T17:20:49.202Z,30.23
2023-02-14T17:23:16.572Z,41.90
2023-02-14T17:25:44.183Z,40.88
2023-02-14T17:28:11.374Z,32.42
2023-02-14T17:30:39.082Z,46.30
2023-02-14T17:33:06.296Z,47.53
2023-02-14T17:35:40.026Z,34.25
2023-02-14T17:38:07.399Z,29.00
2023-02-14T17:40:35.885Z,28.88
2023-02-14T17:43:03.253Z,34.85
2023-02-14T17:45:31.090Z,35.95
2023-02-14T17:47:58.228Z,33.17
2023-02-14T17:50:25.767Z,34.28
2023-02-14T17:52:57.040Z,40.67
2023-02-14T17:55:24.808Z,39.97
2023-02-14T17:57:52.431Z,40.95
2023-02-14T18:00:21.677Z,41.30
2023-02-14T18:02:49.437Z,41.58
2023-02-14T18:05:17.233Z,35.30
2023-02-14T18:07:44.729Z,35.17
2023-02-14T18:10:12.708Z,43.50
2023-02-14T18:12:40.048Z,39.55
2023-02-14T18:15:07.946Z,40.55
2023-02-14T18:17:35.135Z,36.28
2023-02-14T18:20:03.375Z,40.85
2023-02-14T18:22:31.597Z,39.80
2023-02-14T18:24:59.550Z,39.78
2023-02-14T18:27:26.987Z,36.83
2023-02-14T18:29:54.512Z,35.40
2023-02-14T18:32:21.794Z,36.17
2023-02-14T18:34:51.101Z,37.13
2023-02-14T18:37:19.012Z,37.72
2023-02-14T18:39:46.813Z,36.95
2023-02-14T18:42:14.264Z,33.95
2023-02-14T18:44:41.990Z,33.70
2023-02-14T18:47:09.339Z,35.92
2023-02-14T18:49:36.966Z,36.15
2023-02-14T18:52:05.023Z,36.50
2023-02-14T18:54:32.498Z,35.88
2023-02-14T18:56:59.723Z,48.42
2023-02-14T18:59:27.431Z,37.00
2023-02-14T19:01:54.618Z,33.80
2023-02-14T19:04:22.398Z,33.95
2023-02-14T19:06:49.556Z,43.97
2023-02-14T19:09:19.746Z,35.60
2023-02-14T19:11:47.365Z,30.33
2023-02-14T19:14:14.918Z,30.75
2023-02-14T19:16:53.518Z,34.20
2023-02-14T19:19:22.854Z,37.92
2023-02-14T19:21:50.670Z,36.55
2023-02-14T19:24:19.767Z,39.17
2023-02-14T19:26:47.296Z,38.55
2023-02-14T19:29:20.141Z,35.10
2023-02-14T19:31:49.662Z,38.17
2023-02-14T19:34:20.397Z,37.45
2023-02-14T19:36:49.386Z,33.60
2023-02-14T19:39:17.294Z,32.47
2023-02-14T19:41:45.180Z,33.75
2023-02-14T19:44:14.383Z,34.08
2023-02-14T19:46:43.052Z,33.58
2023-02-14T19:49:17.114Z,34.42
2023-02-14T19:51:45.199Z,32.67
2023-02-14T19:54:14.122Z,33.25
2023-02-14T19:56:43.578Z,33.40
2023-02-14T19:59:13.334Z,32.67
2023-02-14T20:01:42.021Z,31.98
2023-02-14T20:04:13.794Z,32.97
2023-02-14T20:06:42.370Z,29.38
2023-02-14T20:09:10.353Z,29.20
2023-02-14T20:11:51.689Z,28.73
2023-02-14T20:14:22.829Z,30.92
2023-02-14T20:16:51.454Z,33.92
2023-02-14T20:19:20.745Z,30.25
2023-02-14T20:21:50.268Z,32.60
2023-02-14T20:24:24.256Z,29.45
2023-02-14T20:26:53.120Z,53.42
2023-02-14T20:29:23.095Z,78.40
2023-02-14T20:31:53.088Z,80.72
2023-02-14T20:34:21.414Z,35.72
2023-02-14T20:36:52.957Z,31.98
2023-02-14T20:39:22.631Z,34.85
2023-02-14T20:41:50.330Z,32.90
2023-02-14T20:44:22.233Z,32.38
2023-02-14T20:46:51.843Z,39.65
2023-02-14T20:49:21.559Z,33.85
2023-02-14T20:51:50.389Z,31.30
2023-02-14T20:54:24.172Z,35.33
2023-02-14T20:56:52.859Z,54.25
2023-02-14T20:59:26.874Z,63.50
2023-02-14T21:01:58.408Z,61.78
2023-02-14T21:04:26.419Z,54.38
2023-02-14T21:06:53.867Z,49.85
2023-02-14T21:09:21.579Z,41.63
2023-02-14T21:11:50.276Z,35.50
2023-02-14T21:14:17.854Z,37.28
2023-02-14T21:16:45.170Z,37.38
2023-02-14T21:19:12.882Z,37.50
2023-02-14T21:21:40.839Z,37.35
2023-02-14T21:24:10.928Z,39.78
2023-02-14T21:26:38.926Z,42.75
2023-02-14T21:29:06.944Z,43.03
2023-02-14T21:31:34.977Z,38.97
2023-02-14T21:34:04.812Z,43.13
2023-02-14T21:36:37.184Z,40.10
2023-02-14T21:39:06.650Z,41.17
2023-02-14T21:41:34.986Z,39.08
2023-02-14T21:44:03.577Z,43.10
2023-02-14T21:46:33.398Z,42.92
2023-02-14T21:49:21.197Z,43.10
2023-02-14T21:51:49.226Z,49.60
2023-02-14T21:54:17.746Z,45.97
2023-02-14T21:56:45.267Z,45.83
2023-02-14T21:59:13.095Z,44.58
2023-02-14T22:01:42.419Z,47.80
2023-02-14T22:04:12.231Z,37.10
2023-02-14T22:06:41.874Z,41.55
2023-02-14T22:09:11.108Z,51.90
2023-02-14T22:11:38.432Z,73.60
2023-02-14T22:14:06.072Z,52.75
2023-02-14T22:16:33.408Z,72.78
2023-02-14T22:19:00.944Z,52.67
2023-02-14T22:21:28.502Z,41.72
2023-02-14T22:23:56.183Z,39.95
2023-02-14T22:26:26.272Z,41.47
2023-02-14T22:28:57.061Z,85.32
2023-02-14T22:31:25.315Z,43.80
2023-02-14T22:33:53.433Z,41.30
2023-02-14T22:36:21.304Z,70.80
2023-02-14T22:38:48.942Z,92.18
2023-02-14T22:41:18.605Z,71.18
2023-02-14T22:43:46.751Z,42.15
2023-02-14T22:46:19.946Z,40.15
2023-02-14T22:48:48.983Z,41.28
2023-02-14T22:51:23.041Z,75.45
2023-02-14T22:53:52.312Z,55.05
2023-02-14T22:56:23.728Z,43.13
2023-02-14T22:59:02.022Z,46.83
2023-02-14T23:01:29.429Z,43.03
2023-02-14T23:03:58.530Z,43.35
2023-02-14T23:06:27.448Z,45.40
2023-02-14T23:08:55.880Z,58.85
2023-02-14T23:11:29.230Z,57.50
2023-02-14T23:14:16.129Z,46.78
2023-02-14T23:17:03.169Z,46.35
2023-02-14T23:19:51.653Z,43.10
2023-02-14T23:22:22.878Z,40.53
2023-02-14T23:24:52.369Z,43.67
2023-02-14T23:27:22.683Z,42.75
2023-02-14T23:29:50.230Z,42.97
2023-02-14T23:32:17.617Z,43.28
2023-02-14T23:34:45.523Z,40.40
2023-02-14T23:37:13.911Z,42.05
2023-02-14T23:39:42.115Z,42.80
2023-02-14T23:42:14.776Z,40.83
2023-02-14T23:44:43.701Z,41.80
2023-02-14T23:47:11.852Z,44.50
2023-02-14T23:49:40.755Z,45.42
2023-02-14T23:52:10.512Z,44.33
2023-02-14T23:54:38.552Z,43.15
2023-02-14T23:57:07.402Z,42.95
2023-02-14T23:59:36.502Z,41.67
